sensor_id;sensor_type;location;lat;lon;timestamp;temperature;humidity
66086;DHT22;52868;49.758;9.586;2023-01-19T00:00:28;1.20;66.10
66086;DHT22;52868;49.758;9.586;2023-01-19T00:02:54;1.20;66.10
66086;DHT22;52868;49.758;9.586;2023-01-19T00:05:20;1.20;66.00
66086;DHT22;52868;49.758;9.586;2023-01-19T00:07:46;1.20;66.30
66086;DHT22;52868;49.758;9.586;2023-01-19T00:10:12;1.30;66.20
66086;DHT22;52868;49.758;9.586;2023-01-19T00:12:37;1.30;66.40
66086;DHT22;52868;49.758;9.586;2023-01-19T00:15:03;1.40;66.00
66086;DHT22;52868;49.758;9.586;2023-01-19T00:17:29;1.30;64.90
66086;DHT22;52868;49.758;9.586;2023-01-19T00:19:55;1.30;65.70
66086;DHT22;52868;49.758;9.586;2023-01-19T00:22:21;1.30;66.20
66086;DHT22;52868;49.758;9.586;2023-01-19T00:24:46;1.40;66.40
66086;DHT22;52868;49.758;9.586;2023-01-19T00:27:12;1.40;66.30
66086;DHT22;52868;49.758;9.586;2023-01-19T00:29:37;1.50;66.20
66086;DHT22;52868;49.758;9.586;2023-01-19T00:32:04;1.40;66.00
66086;DHT22;52868;49.758;9.586;2023-01-19T00:34:30;1.50;66.30
66086;DHT22;52868;49.758;9.586;2023-01-19T00:37:05;1.50;66.00
66086;DHT22;52868;49.758;9.586;2023-01-19T00:39:31;1.40;66.10
66086;DHT22;52868;49.758;9.586;2023-01-19T00:41:57;1.40;66.30
66086;DHT22;52868;49.758;9.586;2023-01-19T00:44:41;1.50;65.80
66086;DHT22;52868;49.758;9.586;2023-01-19T00:47:07;1.40;66.00
66086;DHT22;52868;49.758;9.586;2023-01-19T00:49:32;1.50;66.20
66086;DHT22;52868;49.758;9.586;2023-01-19T00:51:58;1.40;66.40
66086;DHT22;52868;49.758;9.586;2023-01-19T00:54:23;1.40;66.50
66086;DHT22;52868;49.758;9.586;2023-01-19T00:56:49;1.40;66.40
66086;DHT22;52868;49.758;9.586;2023-01-19T00:59:14;1.50;66.10
66086;DHT22;52868;49.758;9.586;2023-01-19T01:01:40;1.50;65.80
66086;DHT22;52868;49.758;9.586;2023-01-19T01:04:06;1.40;65.50
66086;DHT22;52868;49.758;9.586;2023-01-19T01:06:31;1.40;65.80
66086;DHT22;52868;49.758;9.586;2023-01-19T01:08:57;1.30;66.20
66086;DHT22;52868;49.758;9.586;2023-01-19T01:11:22;1.30;66.10
66086;DHT22;52868;49.758;9.586;2023-01-19T01:13:48;1.40;66.50
66086;DHT22;52868;49.758;9.586;2023-01-19T01:16:15;1.40;64.70
66086;DHT22;52868;49.758;9.586;2023-01-19T01:18:41;1.30;65.10
66086;DHT22;52868;49.758;9.586;2023-01-19T01:21:07;1.20;65.60
66086;DHT22;52868;49.758;9.586;2023-01-19T01:23:34;1.30;65.90
66086;DHT22;52868;49.758;9.586;2023-01-19T01:25:59;1.40;65.70
66086;DHT22;52868;49.758;9.586;2023-01-19T01:28:25;1.30;64.90
66086;DHT22;52868;49.758;9.586;2023-01-19T01:30:55;1.20;65.70
66086;DHT22;52868;49.758;9.586;2023-01-19T01:33:21;1.30;65.20
66086;DHT22;52868;49.758;9.586;2023-01-19T01:35:48;1.20;65.80
66086;DHT22;52868;49.758;9.586;2023-01-19T01:38:14;1.30;66.00
66086;DHT22;52868;49.758;9.586;2023-01-19T01:40:40;1.30;66.20
66086;DHT22;52868;49.758;9.586;2023-01-19T01:43:14;1.30;65.70
66086;DHT22;52868;49.758;9.586;2023-01-19T01:45:41;1.30;65.20
66086;DHT22;52868;49.758;9.586;2023-01-19T01:50:45;1.20;65.60
66086;DHT22;52868;49.758;9.586;2023-01-19T01:53:32;1.20;65.60
66086;DHT22;52868;49.758;9.586;2023-01-19T01:55:59;1.20;65.90
66086;DHT22;52868;49.758;9.586;2023-01-19T01:58:27;1.30;65.60
66086;DHT22;52868;49.758;9.586;2023-01-19T02:00:53;1.20;65.30
66086;DHT22;52868;49.758;9.586;2023-01-19T02:03:38;1.20;65.90
66086;DHT22;52868;49.758;9.586;2023-01-19T02:06:04;1.40;65.90
66086;DHT22;52868;49.758;9.586;2023-01-19T02:08:57;1.30;64.10
66086;DHT22;52868;49.758;9.586;2023-01-19T02:11:42;1.10;65.70
66086;DHT22;52868;49.758;9.586;2023-01-19T02:14:27;1.30;64.90
66086;DHT22;52868;49.758;9.586;2023-01-19T02:16:52;1.20;65.00
66086;DHT22;52868;49.758;9.586;2023-01-19T02:19:25;1.20;65.60
66086;DHT22;52868;49.758;9.586;2023-01-19T02:22:03;1.10;65.40
66086;DHT22;52868;49.758;9.586;2023-01-19T02:24:31;1.10;65.60
66086;DHT22;52868;49.758;9.586;2023-01-19T02:26:57;1.20;65.50
66086;DHT22;52868;49.758;9.586;2023-01-19T02:29:24;1.10;64.90
66086;DHT22;52868;49.758;9.586;2023-01-19T02:31:51;1.00;65.60
66086;DHT22;52868;49.758;9.586;2023-01-19T02:34:20;1.20;65.80
66086;DHT22;52868;49.758;9.586;2023-01-19T02:36:58;1.20;65.70
66086;DHT22;52868;49.758;9.586;2023-01-19T02:39:38;1.20;65.60
66086;DHT22;52868;49.758;9.586;2023-01-19T02:42:09;1.20;65.90
66086;DHT22;52868;49.758;9.586;2023-01-19T02:44:38;1.10;65.20
66086;DHT22;52868;49.758;9.586;2023-01-19T02:47:04;1.10;65.60
66086;DHT22;52868;49.758;9.586;2023-01-19T02:49:30;1.00;65.90
66086;DHT22;52868;49.758;9.586;2023-01-19T02:51:57;1.00;66.30
66086;DHT22;52868;49.758;9.586;2023-01-19T02:54:26;1.30;66.30
66086;DHT22;52868;49.758;9.586;2023-01-19T03:18:33;1.10;65.80
66086;DHT22;52868;49.758;9.586;2023-01-19T03:21:04;1.20;66.60
66086;DHT22;52868;49.758;9.586;2023-01-19T03:23:31;1.30;65.80
66086;DHT22;52868;49.758;9.586;2023-01-19T03:25:59;1.20;65.10
66086;DHT22;52868;49.758;9.586;2023-01-19T03:28:27;1.20;65.60
66086;DHT22;52868;49.758;9.586;2023-01-19T03:31:06;1.10;66.30
66086;DHT22;52868;49.758;9.586;2023-01-19T03:33:36;1.10;66.70
66086;DHT22;52868;49.758;9.586;2023-01-19T03:36:04;1.20;66.90
66086;DHT22;52868;49.758;9.586;2023-01-19T03:38:34;1.20;67.10
66086;DHT22;52868;49.758;9.586;2023-01-19T03:41:05;1.40;66.50
66086;DHT22;52868;49.758;9.586;2023-01-19T03:43:34;1.40;65.80
66086;DHT22;52868;49.758;9.586;2023-01-19T03:46:02;1.30;65.70
66086;DHT22;52868;49.758;9.586;2023-01-19T03:48:29;1.30;65.90
66086;DHT22;52868;49.758;9.586;2023-01-19T03:50:55;1.20;65.90
66086;DHT22;52868;49.758;9.586;2023-01-19T03:53:21;1.30;66.30
66086;DHT22;52868;49.758;9.586;2023-01-19T03:55:49;1.30;66.30
66086;DHT22;52868;49.758;9.586;2023-01-19T03:58:15;1.20;66.10
66086;DHT22;52868;49.758;9.586;2023-01-19T04:00:41;1.20;66.40
66086;DHT22;52868;49.758;9.586;2023-01-19T04:03:13;1.20;66.50
66086;DHT22;52868;49.758;9.586;2023-01-19T04:05:39;1.10;66.60
66086;DHT22;52868;49.758;9.586;2023-01-19T04:08:05;1.10;66.60
66086;DHT22;52868;49.758;9.586;2023-01-19T04:10:30;1.10;67.00
66086;DHT22;52868;49.758;9.586;2023-01-19T04:12:57;1.20;67.20
66086;DHT22;52868;49.758;9.586;2023-01-19T04:15:23;1.30;67.20
66086;DHT22;52868;49.758;9.586;2023-01-19T04:17:49;1.20;66.70
66086;DHT22;52868;49.758;9.586;2023-01-19T04:20:15;1.20;67.40
66086;DHT22;52868;49.758;9.586;2023-01-19T04:22:40;1.20;67.70
66086;DHT22;52868;49.758;9.586;2023-01-19T04:25:07;1.30;67.80
66086;DHT22;52868;49.758;9.586;2023-01-19T04:27:35;1.40;67.50
66086;DHT22;52868;49.758;9.586;2023-01-19T04:30:01;1.40;67.60
66086;DHT22;52868;49.758;9.586;2023-01-19T04:32:28;1.50;67.90
66086;DHT22;52868;49.758;9.586;2023-01-19T04:34:54;1.50;67.50
66086;DHT22;52868;49.758;9.586;2023-01-19T04:37:20;1.60;68.10
66086;DHT22;52868;49.758;9.586;2023-01-19T04:39:45;1.60;67.60
66086;DHT22;52868;49.758;9.586;2023-01-19T04:42:11;1.40;68.00
66086;DHT22;52868;49.758;9.586;2023-01-19T04:44:37;1.40;68.30
66086;DHT22;52868;49.758;9.586;2023-01-19T04:47:03;1.40;68.60
66086;DHT22;52868;49.758;9.586;2023-01-19T04:49:28;1.40;68.20
66086;DHT22;52868;49.758;9.586;2023-01-19T04:51:54;1.40;68.40
66086;DHT22;52868;49.758;9.586;2023-01-19T04:54:21;1.40;68.60
66086;DHT22;52868;49.758;9.586;2023-01-19T04:56:46;1.50;68.70
66086;DHT22;52868;49.758;9.586;2023-01-19T04:59:13;1.50;68.40
66086;DHT22;52868;49.758;9.586;2023-01-19T05:01:38;1.40;68.00
66086;DHT22;52868;49.758;9.586;2023-01-19T05:04:04;1.50;68.00
66086;DHT22;52868;49.758;9.586;2023-01-19T05:06:32;1.60;68.20
66086;DHT22;52868;49.758;9.586;2023-01-19T05:08:58;1.60;68.10
66086;DHT22;52868;49.758;9.586;2023-01-19T05:11:23;1.70;67.70
66086;DHT22;52868;49.758;9.586;2023-01-19T05:13:49;1.40;67.60
66086;DHT22;52868;49.758;9.586;2023-01-19T05:16:15;1.40;67.60
66086;DHT22;52868;49.758;9.586;2023-01-19T05:18:40;1.40;67.90
66086;DHT22;52868;49.758;9.586;2023-01-19T05:21:06;1.60;67.80
66086;DHT22;52868;49.758;9.586;2023-01-19T05:23:32;1.50;67.80
66086;DHT22;52868;49.758;9.586;2023-01-19T05:25:59;1.40;67.60
66086;DHT22;52868;49.758;9.586;2023-01-19T05:28:27;1.40;67.80
66086;DHT22;52868;49.758;9.586;2023-01-19T05:30:53;1.30;67.80
66086;DHT22;52868;49.758;9.586;2023-01-19T05:33:20;1.30;68.10
66086;DHT22;52868;49.758;9.586;2023-01-19T05:35:49;1.30;68.50
66086;DHT22;52868;49.758;9.586;2023-01-19T05:38:16;1.30;68.70
66086;DHT22;52868;49.758;9.586;2023-01-19T05:40:41;1.40;68.60
66086;DHT22;52868;49.758;9.586;2023-01-19T05:43:07;1.40;68.30
66086;DHT22;52868;49.758;9.586;2023-01-19T05:45:33;1.50;68.30
66086;DHT22;52868;49.758;9.586;2023-01-19T05:47:59;1.40;68.30
66086;DHT22;52868;49.758;9.586;2023-01-19T05:50:24;1.40;68.60
66086;DHT22;52868;49.758;9.586;2023-01-19T05:52:50;1.50;67.70
66086;DHT22;52868;49.758;9.586;2023-01-19T05:55:19;1.40;67.70
66086;DHT22;52868;49.758;9.586;2023-01-19T05:57:45;1.40;68.20
66086;DHT22;52868;49.758;9.586;2023-01-19T06:00:11;1.50;68.00
66086;DHT22;52868;49.758;9.586;2023-01-19T06:02:37;1.60;67.80
66086;DHT22;52868;49.758;9.586;2023-01-19T06:05:03;1.60;67.50
66086;DHT22;52868;49.758;9.586;2023-01-19T06:07:29;1.50;67.50
66086;DHT22;52868;49.758;9.586;2023-01-19T06:09:56;1.40;67.60
66086;DHT22;52868;49.758;9.586;2023-01-19T06:12:22;1.30;67.50
66086;DHT22;52868;49.758;9.586;2023-01-19T06:14:48;1.30;67.90
66086;DHT22;52868;49.758;9.586;2023-01-19T06:17:13;1.30;67.90
66086;DHT22;52868;49.758;9.586;2023-01-19T06:19:39;1.30;68.10
66086;DHT22;52868;49.758;9.586;2023-01-19T06:22:05;1.30;68.40
66086;DHT22;52868;49.758;9.586;2023-01-19T06:24:30;1.30;68.20
66086;DHT22;52868;49.758;9.586;2023-01-19T06:26:57;1.40;67.70
66086;DHT22;52868;49.758;9.586;2023-01-19T06:29:28;1.40;67.30
66086;DHT22;52868;49.758;9.586;2023-01-19T06:31:54;1.30;67.40
66086;DHT22;52868;49.758;9.586;2023-01-19T06:34:20;1.40;67.80
66086;DHT22;52868;49.758;9.586;2023-01-19T06:36:45;1.30;67.50
66086;DHT22;52868;49.758;9.586;2023-01-19T06:39:11;1.30;67.80
66086;DHT22;52868;49.758;9.586;2023-01-19T06:41:37;1.20;68.00
66086;DHT22;52868;49.758;9.586;2023-01-19T06:44:04;1.30;68.30
66086;DHT22;52868;49.758;9.586;2023-01-19T06:46:30;1.30;68.40
66086;DHT22;52868;49.758;9.586;2023-01-19T06:48:55;1.40;68.50
66086;DHT22;52868;49.758;9.586;2023-01-19T06:51:21;1.30;68.40
66086;DHT22;52868;49.758;9.586;2023-01-19T06:53:47;1.30;68.60
66086;DHT22;52868;49.758;9.586;2023-01-19T06:56:13;1.50;67.90
66086;DHT22;52868;49.758;9.586;2023-01-19T06:58:39;1.40;67.80
66086;DHT22;52868;49.758;9.586;2023-01-19T07:01:06;1.30;67.70
66086;DHT22;52868;49.758;9.586;2023-01-19T07:03:34;1.20;68.20
66086;DHT22;52868;49.758;9.586;2023-01-19T07:06:00;1.20;68.40
66086;DHT22;52868;49.758;9.586;2023-01-19T07:08:27;1.30;68.20
66086;DHT22;52868;49.758;9.586;2023-01-19T07:10:59;1.30;67.60
66086;DHT22;52868;49.758;9.586;2023-01-19T07:13:25;1.20;67.40
66086;DHT22;52868;49.758;9.586;2023-01-19T07:15:51;1.20;68.00
66086;DHT22;52868;49.758;9.586;2023-01-19T07:18:16;1.30;68.10
66086;DHT22;52868;49.758;9.586;2023-01-19T07:20:42;1.20;68.20
66086;DHT22;52868;49.758;9.586;2023-01-19T07:23:10;1.30;68.40
66086;DHT22;52868;49.758;9.586;2023-01-19T07:25:35;1.20;68.40
66086;DHT22;52868;49.758;9.586;2023-01-19T07:28:01;1.20;68.70
66086;DHT22;52868;49.758;9.586;2023-01-19T07:30:27;1.20;68.30
66086;DHT22;52868;49.758;9.586;2023-01-19T07:32:56;1.20;68.40
66086;DHT22;52868;49.758;9.586;2023-01-19T07:35:23;1.30;68.50
66086;DHT22;52868;49.758;9.586;2023-01-19T07:37:48;1.30;68.80
66086;DHT22;52868;49.758;9.586;2023-01-19T07:40:14;1.20;67.70
66086;DHT22;52868;49.758;9.586;2023-01-19T07:42:48;1.10;68.40
66086;DHT22;52868;49.758;9.586;2023-01-19T07:45:19;1.20;68.90
66086;DHT22;52868;49.758;9.586;2023-01-19T07:47:46;1.40;69.20
66086;DHT22;52868;49.758;9.586;2023-01-19T07:50:17;1.50;69.50
66086;DHT22;52868;49.758;9.586;2023-01-19T07:52:45;1.60;69.60
66086;DHT22;52868;49.758;9.586;2023-01-19T07:55:11;1.60;69.80
66086;DHT22;52868;49.758;9.586;2023-01-19T07:57:37;1.60;70.00
66086;DHT22;52868;49.758;9.586;2023-01-19T08:00:03;1.70;70.10
66086;DHT22;52868;49.758;9.586;2023-01-19T08:02:29;1.70;70.20
66086;DHT22;52868;49.758;9.586;2023-01-19T08:04:56;1.70;70.10
66086;DHT22;52868;49.758;9.586;2023-01-19T08:07:21;1.70;70.40
66086;DHT22;52868;49.758;9.586;2023-01-19T08:09:47;1.70;70.10
66086;DHT22;52868;49.758;9.586;2023-01-19T08:12:13;1.80;70.00
66086;DHT22;52868;49.758;9.586;2023-01-19T08:14:38;1.70;70.00
66086;DHT22;52868;49.758;9.586;2023-01-19T08:17:04;1.80;70.00
66086;DHT22;52868;49.758;9.586;2023-01-19T08:19:29;1.70;70.10
66086;DHT22;52868;49.758;9.586;2023-01-19T08:21:55;1.80;70.40
66086;DHT22;52868;49.758;9.586;2023-01-19T08:24:23;1.70;70.30
66086;DHT22;52868;49.758;9.586;2023-01-19T08:26:58;1.80;70.40
66086;DHT22;52868;49.758;9.586;2023-01-19T08:29:23;1.90;70.60
66086;DHT22;52868;49.758;9.586;2023-01-19T08:31:49;1.90;70.80
66086;DHT22;52868;49.758;9.586;2023-01-19T08:34:15;2.00;70.80
66086;DHT22;52868;49.758;9.586;2023-01-19T08:36:40;2.20;70.40
66086;DHT22;52868;49.758;9.586;2023-01-19T08:39:06;2.30;69.80
66086;DHT22;52868;49.758;9.586;2023-01-19T08:41:31;2.30;69.90
66086;DHT22;52868;49.758;9.586;2023-01-19T08:43:57;2.30;70.30
66086;DHT22;52868;49.758;9.586;2023-01-19T08:46:23;2.30;70.70
66086;DHT22;52868;49.758;9.586;2023-01-19T08:48:48;2.30;70.90
66086;DHT22;52868;49.758;9.586;2023-01-19T08:51:15;2.40;71.00
66086;DHT22;52868;49.758;9.586;2023-01-19T08:53:41;2.30;71.20
66086;DHT22;52868;49.758;9.586;2023-01-19T08:56:10;2.40;70.90
66086;DHT22;52868;49.758;9.586;2023-01-19T08:58:42;2.40;71.00
66086;DHT22;52868;49.758;9.586;2023-01-19T09:01:09;2.50;71.00
66086;DHT22;52868;49.758;9.586;2023-01-19T09:03:35;2.50;70.80
66086;DHT22;52868;49.758;9.586;2023-01-19T09:06:04;2.60;71.00
66086;DHT22;52868;49.758;9.586;2023-01-19T09:08:30;2.60;70.70
66086;DHT22;52868;49.758;9.586;2023-01-19T09:10:55;2.70;70.30
66086;DHT22;52868;49.758;9.586;2023-01-19T09:13:21;2.70;70.40
66086;DHT22;52868;49.758;9.586;2023-01-19T09:15:47;2.70;70.20
66086;DHT22;52868;49.758;9.586;2023-01-19T09:18:17;2.70;70.20
66086;DHT22;52868;49.758;9.586;2023-01-19T09:20:45;2.70;70.00
66086;DHT22;52868;49.758;9.586;2023-01-19T09:23:12;2.80;70.10
66086;DHT22;52868;49.758;9.586;2023-01-19T09:25:40;2.80;69.80
66086;DHT22;52868;49.758;9.586;2023-01-19T09:28:08;2.80;70.00
66086;DHT22;52868;49.758;9.586;2023-01-19T09:30:39;2.90;70.30
66086;DHT22;52868;49.758;9.586;2023-01-19T09:33:11;2.90;70.20
66086;DHT22;52868;49.758;9.586;2023-01-19T09:35:37;2.90;70.80
66086;DHT22;52868;49.758;9.586;2023-01-19T09:38:04;3.00;70.90
66086;DHT22;52868;49.758;9.586;2023-01-19T09:40:32;3.00;70.60
66086;DHT22;52868;49.758;9.586;2023-01-19T09:46:12;3.00;71.00
66086;DHT22;52868;49.758;9.586;2023-01-19T09:48:56;3.10;70.50
66086;DHT22;52868;49.758;9.586;2023-01-19T09:51:25;3.10;70.60
66086;DHT22;52868;49.758;9.586;2023-01-19T09:56:41;3.20;71.10
66086;DHT22;52868;49.758;9.586;2023-01-19T09:59:29;3.20;71.00
66086;DHT22;52868;49.758;9.586;2023-01-19T10:21:26;3.30;70.80
66086;DHT22;52868;49.758;9.586;2023-01-19T10:26:34;3.30;71.00
66086;DHT22;52868;49.758;9.586;2023-01-19T10:29:18;3.40;71.20
66086;DHT22;52868;49.758;9.586;2023-01-19T10:31:46;3.40;71.20
66086;DHT22;52868;49.758;9.586;2023-01-19T10:34:12;3.40;71.00
66086;DHT22;52868;49.758;9.586;2023-01-19T10:36:44;3.50;71.20
66086;DHT22;52868;49.758;9.586;2023-01-19T10:39:14;3.50;71.20
66086;DHT22;52868;49.758;9.586;2023-01-19T10:41:44;3.50;71.20
66086;DHT22;52868;49.758;9.586;2023-01-19T10:44:22;3.60;71.10
66086;DHT22;52868;49.758;9.586;2023-01-19T10:46:49;3.60;70.90
66086;DHT22;52868;49.758;9.586;2023-01-19T10:49:28;3.60;71.10
66086;DHT22;52868;49.758;9.586;2023-01-19T10:51:55;3.60;71.20
66086;DHT22;52868;49.758;9.586;2023-01-19T10:54:22;3.70;71.00
66086;DHT22;52868;49.758;9.586;2023-01-19T10:56:57;3.70;71.20
66086;DHT22;52868;49.758;9.586;2023-01-19T11:05:02;3.70;71.30
66086;DHT22;52868;49.758;9.586;2023-01-19T11:07:45;3.70;71.20
66086;DHT22;52868;49.758;9.586;2023-01-19T11:10:19;3.70;71.10
66086;DHT22;52868;49.758;9.586;2023-01-19T11:13:10;3.80;71.20
66086;DHT22;52868;49.758;9.586;2023-01-19T11:15:54;3.80;71.20
66086;DHT22;52868;49.758;9.586;2023-01-19T11:18:27;3.80;70.90
66086;DHT22;52868;49.758;9.586;2023-01-19T11:20:56;3.90;70.80
66086;DHT22;52868;49.758;9.586;2023-01-19T11:23:36;3.90;71.10
66086;DHT22;52868;49.758;9.586;2023-01-19T11:26:14;4.00;70.70
66086;DHT22;52868;49.758;9.586;2023-01-19T11:28:47;4.00;70.90
66086;DHT22;52868;49.758;9.586;2023-01-19T11:38:54;4.00;70.80
66086;DHT22;52868;49.758;9.586;2023-01-19T11:41:33;4.00;70.70
66086;DHT22;52868;49.758;9.586;2023-01-19T11:45:15;4.00;70.70
66086;DHT22;52868;49.758;9.586;2023-01-19T11:47:15;4.00;70.90
66086;DHT22;52868;49.758;9.586;2023-01-19T11:49:43;4.00;70.90
66086;DHT22;52868;49.758;9.586;2023-01-19T11:54:51;4.00;70.80
66086;DHT22;52868;49.758;9.586;2023-01-19T11:57:20;4.10;70.60
66086;DHT22;52868;49.758;9.586;2023-01-19T11:59:46;4.00;70.60
66086;DHT22;52868;49.758;9.586;2023-01-19T12:02:27;4.00;70.60
66086;DHT22;52868;49.758;9.586;2023-01-19T12:05:05;4.10;70.50
66086;DHT22;52868;49.758;9.586;2023-01-19T12:07:35;4.00;70.40
66086;DHT22;52868;49.758;9.586;2023-01-19T12:12:46;4.10;70.30
66086;DHT22;52868;49.758;9.586;2023-01-19T12:17:50;4.10;70.40
66086;DHT22;52868;49.758;9.586;2023-01-19T12:20:41;4.10;70.00
66086;DHT22;52868;49.758;9.586;2023-01-19T12:23:27;4.20;70.00
66086;DHT22;52868;49.758;9.586;2023-01-19T12:28:36;4.10;70.00
66086;DHT22;52868;49.758;9.586;2023-01-19T12:31:02;4.10;70.00
66086;DHT22;52868;49.758;9.586;2023-01-19T12:33:36;4.10;69.90
66086;DHT22;52868;49.758;9.586;2023-01-19T12:38:54;4.20;69.70
66086;DHT22;52868;49.758;9.586;2023-01-19T12:41:29;4.20;69.50
66086;DHT22;52868;49.758;9.586;2023-01-19T12:44:24;4.20;69.70
66086;DHT22;52868;49.758;9.586;2023-01-19T12:46:59;4.20;69.70
66086;DHT22;52868;49.758;9.586;2023-01-19T12:49:49;4.20;69.70
66086;DHT22;52868;49.758;9.586;2023-01-19T12:52:39;4.20;69.60
66086;DHT22;52868;49.758;9.586;2023-01-19T13:00:36;4.20;69.60
66086;DHT22;52868;49.758;9.586;2023-01-19T13:18:45;4.20;69.50
66086;DHT22;52868;49.758;9.586;2023-01-19T13:21:24;4.20;69.60
66086;DHT22;52868;49.758;9.586;2023-01-19T13:23:56;4.30;69.50
66086;DHT22;52868;49.758;9.586;2023-01-19T13:26:24;4.20;69.60
66086;DHT22;52868;49.758;9.586;2023-01-19T13:29:21;4.20;69.50
66086;DHT22;52868;49.758;9.586;2023-01-19T13:31:43;4.20;69.60
66086;DHT22;52868;49.758;9.586;2023-01-19T13:34:18;4.20;69.60
66086;DHT22;52868;49.758;9.586;2023-01-19T13:36:49;4.20;69.50
66086;DHT22;52868;49.758;9.586;2023-01-19T13:39:21;4.20;69.50
66086;DHT22;52868;49.758;9.586;2023-01-19T13:41:51;4.30;69.60
66086;DHT22;52868;49.758;9.586;2023-01-19T13:44:27;4.20;69.90
66086;DHT22;52868;49.758;9.586;2023-01-19T13:46:55;4.20;69.70
66086;DHT22;52868;49.758;9.586;2023-01-19T13:49:28;4.30;69.70
66086;DHT22;52868;49.758;9.586;2023-01-19T13:54:29;4.30;69.80
66086;DHT22;52868;49.758;9.586;2023-01-19T13:56:55;4.30;69.60
66086;DHT22;52868;49.758;9.586;2023-01-19T13:59:20;4.30;69.70
66086;DHT22;52868;49.758;9.586;2023-01-19T14:01:46;4.30;69.60
66086;DHT22;52868;49.758;9.586;2023-01-19T14:04:32;4.20;69.70
66086;DHT22;52868;49.758;9.586;2023-01-19T14:07:05;4.30;69.90
66086;DHT22;52868;49.758;9.586;2023-01-19T14:09:37;4.20;70.00
66086;DHT22;52868;49.758;9.586;2023-01-19T14:12:14;4.20;70.10
66086;DHT22;52868;49.758;9.586;2023-01-19T14:14:41;4.20;70.20
66086;DHT22;52868;49.758;9.586;2023-01-19T14:17:21;4.20;70.10
66086;DHT22;52868;49.758;9.586;2023-01-19T14:19:48;4.20;70.30
66086;DHT22;52868;49.758;9.586;2023-01-19T14:22:14;4.20;70.40
66086;DHT22;52868;49.758;9.586;2023-01-19T14:24:40;4.20;70.20
66086;DHT22;52868;49.758;9.586;2023-01-19T14:29:43;4.30;70.10
66086;DHT22;52868;49.758;9.586;2023-01-19T14:32:26;4.30;70.30
66086;DHT22;52868;49.758;9.586;2023-01-19T14:37:33;4.30;70.40
66086;DHT22;52868;49.758;9.586;2023-01-19T14:42:58;4.30;70.60
66086;DHT22;52868;49.758;9.586;2023-01-19T14:45:36;4.30;70.60
66086;DHT22;52868;49.758;9.586;2023-01-19T14:50:39;4.20;70.90
66086;DHT22;52868;49.758;9.586;2023-01-19T14:53:13;4.20;71.10
66086;DHT22;52868;49.758;9.586;2023-01-19T14:55:51;4.20;71.10
66086;DHT22;52868;49.758;9.586;2023-01-19T14:58:20;4.20;71.30
66086;DHT22;52868;49.758;9.586;2023-01-19T15:00:47;4.30;71.20
66086;DHT22;52868;49.758;9.586;2023-01-19T15:03:13;4.20;71.40
66086;DHT22;52868;49.758;9.586;2023-01-19T15:05:41;4.20;71.50
66086;DHT22;52868;49.758;9.586;2023-01-19T15:08:14;4.20;71.40
66086;DHT22;52868;49.758;9.586;2023-01-19T15:10:40;4.20;71.60
66086;DHT22;52868;49.758;9.586;2023-01-19T15:13:11;4.20;71.30
66086;DHT22;52868;49.758;9.586;2023-01-19T15:15:40;4.20;71.40
66086;DHT22;52868;49.758;9.586;2023-01-19T15:18:14;4.20;71.30
66086;DHT22;52868;49.758;9.586;2023-01-19T15:20:40;4.20;71.80
66086;DHT22;52868;49.758;9.586;2023-01-19T15:23:08;4.20;72.00
66086;DHT22;52868;49.758;9.586;2023-01-19T15:25:34;4.20;72.10
66086;DHT22;52868;49.758;9.586;2023-01-19T15:28:00;4.20;71.70
66086;DHT22;52868;49.758;9.586;2023-01-19T15:30:27;4.20;72.30
66086;DHT22;52868;49.758;9.586;2023-01-19T15:32:55;4.20;72.50
66086;DHT22;52868;49.758;9.586;2023-01-19T15:35:22;4.20;72.40
66086;DHT22;52868;49.758;9.586;2023-01-19T15:37:48;4.20;72.60
66086;DHT22;52868;49.758;9.586;2023-01-19T15:40:16;4.10;72.60
66086;DHT22;52868;49.758;9.586;2023-01-19T15:42:43;4.10;72.90
66086;DHT22;52868;49.758;9.586;2023-01-19T15:48:08;4.20;72.90
66086;DHT22;52868;49.758;9.586;2023-01-19T15:50:42;4.20;72.90
66086;DHT22;52868;49.758;9.586;2023-01-19T15:53:17;4.10;73.10
66086;DHT22;52868;49.758;9.586;2023-01-19T15:55:43;4.20;73.10
66086;DHT22;52868;49.758;9.586;2023-01-19T15:58:09;4.20;73.00
66086;DHT22;52868;49.758;9.586;2023-01-19T16:00:37;4.20;73.10
66086;DHT22;52868;49.758;9.586;2023-01-19T16:03:03;4.10;73.40
66086;DHT22;52868;49.758;9.586;2023-01-19T16:05:29;4.20;73.00
66086;DHT22;52868;49.758;9.586;2023-01-19T16:07:54;4.10;73.30
66086;DHT22;52868;49.758;9.586;2023-01-19T16:10:20;4.10;73.40
66086;DHT22;52868;49.758;9.586;2023-01-19T16:12:46;4.20;73.20
66086;DHT22;52868;49.758;9.586;2023-01-19T16:15:13;4.10;73.50
66086;DHT22;52868;49.758;9.586;2023-01-19T16:17:39;4.10;73.50
66086;DHT22;52868;49.758;9.586;2023-01-19T16:20:06;4.20;73.40
66086;DHT22;52868;49.758;9.586;2023-01-19T16:22:32;4.10;73.60
66086;DHT22;52868;49.758;9.586;2023-01-19T16:24:58;4.10;73.70
66086;DHT22;52868;49.758;9.586;2023-01-19T16:27:24;4.10;73.70
66086;DHT22;52868;49.758;9.586;2023-01-19T16:29:51;4.10;73.80
66086;DHT22;52868;49.758;9.586;2023-01-19T16:32:17;4.10;73.90
66086;DHT22;52868;49.758;9.586;2023-01-19T16:34:42;4.10;73.60
66086;DHT22;52868;49.758;9.586;2023-01-19T16:37:08;4.10;73.60
66086;DHT22;52868;49.758;9.586;2023-01-19T16:39:34;4.10;74.10
66086;DHT22;52868;49.758;9.586;2023-01-19T16:41:59;4.10;74.10
66086;DHT22;52868;49.758;9.586;2023-01-19T16:44:25;4.00;74.10
66086;DHT22;52868;49.758;9.586;2023-01-19T16:46:51;4.00;74.40
66086;DHT22;52868;49.758;9.586;2023-01-19T16:49:19;4.00;74.20
66086;DHT22;52868;49.758;9.586;2023-01-19T16:51:46;4.00;74.50
66086;DHT22;52868;49.758;9.586;2023-01-19T16:54:13;4.00;74.50
66086;DHT22;52868;49.758;9.586;2023-01-19T16:56:39;4.00;74.50
66086;DHT22;52868;49.758;9.586;2023-01-19T16:59:06;4.00;74.70
66086;DHT22;52868;49.758;9.586;2023-01-19T17:01:31;4.00;74.40
66086;DHT22;52868;49.758;9.586;2023-01-19T17:03:58;4.10;74.00
66086;DHT22;52868;49.758;9.586;2023-01-19T17:06:23;4.10;74.40
66086;DHT22;52868;49.758;9.586;2023-01-19T17:08:50;4.00;74.30
66086;DHT22;52868;49.758;9.586;2023-01-19T17:11:18;4.00;74.70
66086;DHT22;52868;49.758;9.586;2023-01-19T17:13:48;4.00;74.70
66086;DHT22;52868;49.758;9.586;2023-01-19T17:16:14;3.90;74.70
66086;DHT22;52868;49.758;9.586;2023-01-19T17:18:40;3.90;74.80
66086;DHT22;52868;49.758;9.586;2023-01-19T17:21:07;4.00;74.80
66086;DHT22;52868;49.758;9.586;2023-01-19T17:23:34;4.00;74.70
66086;DHT22;52868;49.758;9.586;2023-01-19T17:26:03;4.00;74.80
66086;DHT22;52868;49.758;9.586;2023-01-19T17:28:29;4.00;74.80
66086;DHT22;52868;49.758;9.586;2023-01-19T17:30:55;3.90;74.90
66086;DHT22;52868;49.758;9.586;2023-01-19T17:33:22;4.00;75.00
66086;DHT22;52868;49.758;9.586;2023-01-19T17:35:48;3.90;75.10
66086;DHT22;52868;49.758;9.586;2023-01-19T17:38:14;3.90;75.20
66086;DHT22;52868;49.758;9.586;2023-01-19T17:40:40;3.90;75.30
66086;DHT22;52868;49.758;9.586;2023-01-19T17:43:06;3.90;75.20
66086;DHT22;52868;49.758;9.586;2023-01-19T17:45:36;3.90;75.40
66086;DHT22;52868;49.758;9.586;2023-01-19T17:48:04;3.90;75.40
66086;DHT22;52868;49.758;9.586;2023-01-19T17:50:33;3.90;75.40